createdAt,value
2019-03-29T00:00:26.146Z,7.23
2019-03-29T00:02:55.508Z,7.30
2019-03-29T00:05:24.864Z,7.17
2019-03-29T00:07:54.235Z,6.97
2019-03-29T00:10:23.612Z,6.33
2019-03-29T00:12:53.010Z,6.97
2019-03-29T00:15:22.423Z,6.97
2019-03-29T00:17:51.779Z,7.20
2019-03-29T00:20:21.139Z,7.60
2019-03-29T00:22:50.507Z,7.57
2019-03-29T00:25:20.199Z,6.70
2019-03-29T00:27:49.577Z,6.80
2019-03-29T00:30:20.073Z,7.03
2019-03-29T00:32:49.424Z,6.97
2019-03-29T00:35:18.799Z,7.20
2019-03-29T00:37:53.788Z,7.50
2019-03-29T00:40:19.243Z,6.70
2019-03-29T00:42:48.664Z,6.60
2019-03-29T00:45:19.010Z,6.30
2019-03-29T00:47:48.486Z,7.50
2019-03-29T00:50:17.855Z,6.60
2019-03-29T00:52:47.219Z,6.80
2019-03-29T00:55:16.608Z,6.47
2019-03-29T00:57:46.272Z,6.80
2019-03-29T01:00:15.812Z,6.50
2019-03-29T01:02:45.183Z,7.50
2019-03-29T01:05:14.556Z,7.40
2019-03-29T01:07:44.421Z,7.60
2019-03-29T01:10:14.231Z,7.90
2019-03-29T01:12:43.631Z,7.30
2019-03-29T01:15:13.271Z,7.77
2019-03-29T01:17:42.640Z,7.63
2019-03-29T01:20:12.574Z,8.47
2019-03-29T01:22:41.930Z,7.77
2019-03-29T01:25:11.382Z,7.60
2019-03-29T01:27:40.727Z,7.50
2019-03-29T01:30:10.387Z,7.40
2019-03-29T01:32:39.744Z,8.03
2019-03-29T01:35:09.599Z,7.60
2019-03-29T01:37:39.065Z,7.50
2019-03-29T01:40:09.146Z,7.40
2019-03-29T01:42:38.851Z,7.10
2019-03-29T01:45:08.581Z,7.43
2019-03-29T01:47:37.954Z,7.90
2019-03-29T01:50:08.172Z,7.90
2019-03-29T01:52:38.017Z,6.70
2019-03-29T01:55:07.666Z,7.43
2019-03-29T01:57:37.061Z,7.90
2019-03-29T02:00:06.781Z,7.20
2019-03-29T02:02:36.354Z,7.77
2019-03-29T02:05:06.028Z,6.80
2019-03-29T02:07:35.380Z,7.80
2019-03-29T02:10:05.040Z,7.80
2019-03-29T02:12:34.771Z,7.67
2019-03-29T02:15:04.853Z,6.07
2019-03-29T02:17:34.482Z,7.20
2019-03-29T02:20:04.363Z,6.97
2019-03-29T02:22:33.747Z,7.57
2019-03-29T02:25:03.255Z,7.10
2019-03-29T02:27:32.649Z,6.43
2019-03-29T02:30:04.247Z,7.40
2019-03-29T02:32:34.423Z,7.43
2019-03-29T02:35:04.105Z,6.67
2019-03-29T02:37:33.500Z,7.47
2019-03-29T02:40:02.912Z,7.77
2019-03-29T02:42:32.672Z,6.63
2019-03-29T02:45:03.313Z,7.00
2019-03-29T02:47:32.957Z,7.30
2019-03-29T02:50:02.458Z,7.90
2019-03-29T02:52:31.905Z,7.70
2019-03-29T02:55:01.311Z,7.80
2019-03-29T02:57:31.895Z,8.07
2019-03-29T03:00:01.357Z,9.90
2019-03-29T03:02:30.976Z,9.93
2019-03-29T03:05:00.573Z,9.10
2019-03-29T03:07:29.976Z,9.10
2019-03-29T03:09:59.393Z,9.43
2019-03-29T03:12:28.781Z,9.40
2019-03-29T03:14:58.224Z,9.03
2019-03-29T03:17:27.684Z,9.63
2019-03-29T03:19:57.098Z,9.23
2019-03-29T03:22:26.501Z,10.50
2019-03-29T03:24:55.961Z,9.80
2019-03-29T03:27:25.638Z,8.87
2019-03-29T03:29:55.022Z,9.37
2019-03-29T03:32:24.481Z,9.70
2019-03-29T03:34:53.920Z,11.40
2019-03-29T03:37:23.689Z,11.63
2019-03-29T03:39:53.165Z,12.77
2019-03-29T03:42:22.628Z,12.27
2019-03-29T03:44:52.031Z,14.17
2019-03-29T03:47:21.426Z,15.70
2019-03-29T03:49:50.839Z,16.47
2019-03-29T03:52:20.593Z,18.50
2019-03-29T03:54:50.098Z,17.90
2019-03-29T03:57:19.807Z,19.63
2019-03-29T03:59:49.980Z,18.83
2019-03-29T04:02:19.388Z,18.60
2019-03-29T04:04:48.827Z,19.00
2019-03-29T04:07:18.291Z,19.93
2019-03-29T04:09:49.910Z,18.60
2019-03-29T04:12:19.089Z,19.97
2019-03-29T04:14:48.602Z,17.87
2019-03-29T04:17:18.401Z,18.47
2019-03-29T04:19:47.825Z,19.10
2019-03-29T04:22:17.240Z,19.70
2019-03-29T04:24:46.933Z,19.50
2019-03-29T04:27:16.418Z,17.83
2019-03-29T04:29:46.332Z,17.10
2019-03-29T04:32:15.735Z,20.87
2019-03-29T04:34:45.152Z,18.70
2019-03-29T04:37:14.569Z,18.90
2019-03-29T04:39:43.956Z,18.77
2019-03-29T04:42:13.368Z,19.87
2019-03-29T04:44:42.767Z,18.50
2019-03-29T04:47:12.470Z,18.90
2019-03-29T04:49:41.874Z,18.70
2019-03-29T04:52:11.276Z,17.97
2019-03-29T04:54:40.704Z,17.40
2019-03-29T04:57:10.088Z,16.40
2019-03-29T04:59:39.489Z,16.97
2019-03-29T05:02:08.911Z,17.30
2019-03-29T05:04:38.357Z,16.53
2019-03-29T05:07:07.824Z,18.17
2019-03-29T05:09:37.285Z,16.70
2019-03-29T05:12:06.712Z,18.47
2019-03-29T05:14:36.396Z,17.93
2019-03-29T05:17:05.927Z,16.33
2019-03-29T05:19:35.601Z,20.00
2019-03-29T05:22:05.038Z,18.87
2019-03-29T05:24:34.449Z,17.07
2019-03-29T05:27:03.901Z,16.50
2019-03-29T05:29:33.303Z,17.00
2019-03-29T05:32:03.695Z,17.70
2019-03-29T05:34:33.079Z,17.00
2019-03-29T05:37:02.486Z,15.90
2019-03-29T05:39:32.018Z,15.70
2019-03-29T05:42:01.561Z,17.87
2019-03-29T05:44:31.049Z,16.23
2019-03-29T05:47:00.471Z,15.73
2019-03-29T05:49:30.210Z,16.70
2019-03-29T05:51:59.778Z,15.90
2019-03-29T05:54:30.321Z,15.57
2019-03-29T05:56:59.734Z,15.13
2019-03-29T05:59:29.156Z,15.07
2019-03-29T06:01:58.557Z,14.90
2019-03-29T06:04:28.008Z,14.87
2019-03-29T06:06:57.483Z,14.10
2019-03-29T06:09:26.941Z,13.33
2019-03-29T06:11:56.358Z,14.63
2019-03-29T06:14:25.820Z,14.37
2019-03-29T06:16:55.262Z,14.17
2019-03-29T06:19:24.862Z,14.40
2019-03-29T06:21:54.392Z,14.27
2019-03-29T06:24:23.881Z,14.90
2019-03-29T06:26:53.291Z,16.03
2019-03-29T06:29:22.727Z,15.73
2019-03-29T06:31:52.112Z,15.40
2019-03-29T06:34:21.925Z,15.63
2019-03-29T06:36:51.495Z,17.57
2019-03-29T06:39:21.457Z,17.30
2019-03-29T06:41:50.921Z,17.60
2019-03-29T06:44:20.326Z,17.77
2019-03-29T06:46:49.770Z,17.53
2019-03-29T06:49:19.182Z,17.00
2019-03-29T06:51:48.593Z,17.37
2019-03-29T06:54:18.008Z,17.67
2019-03-29T06:56:47.402Z,17.53
2019-03-29T06:59:17.832Z,18.87
2019-03-29T07:01:47.324Z,17.93
2019-03-29T07:04:16.827Z,18.93
2019-03-29T07:06:46.255Z,17.70
2019-03-29T07:09:15.674Z,18.83
2019-03-29T07:11:45.140Z,18.73
2019-03-29T07:14:14.576Z,18.13
2019-03-29T07:16:44.084Z,18.60
2019-03-29T07:19:13.893Z,17.80
2019-03-29T07:21:44.280Z,19.43
2019-03-29T07:24:13.730Z,18.63
2019-03-29T07:26:43.141Z,19.20
2019-03-29T07:29:13.164Z,18.33
2019-03-29T07:31:42.616Z,20.03
2019-03-29T07:34:12.052Z,21.63
2019-03-29T07:36:41.515Z,18.50
2019-03-29T07:39:10.960Z,20.77
2019-03-29T07:41:40.379Z,19.80
2019-03-29T07:44:10.197Z,19.70
2019-03-29T07:46:39.616Z,20.60
2019-03-29T07:49:09.407Z,19.70
2019-03-29T07:51:39.221Z,18.47
2019-03-29T07:54:08.646Z,19.50
2019-03-29T07:56:38.050Z,18.93
2019-03-29T07:59:07.757Z,19.30
2019-03-29T08:01:37.170Z,19.77
2019-03-29T08:04:06.559Z,17.90
2019-03-29T08:06:35.992Z,16.63
2019-03-29T08:09:06.372Z,17.30
2019-03-29T08:11:46.086Z,15.70
2019-03-29T08:14:07.972Z,16.90
2019-03-29T08:16:37.364Z,16.50
2019-03-29T08:19:06.766Z,15.63
2019-03-29T08:21:36.169Z,14.60
2019-03-29T08:24:05.921Z,15.90
2019-03-29T08:26:35.332Z,16.80
2019-03-29T08:29:04.737Z,15.40
2019-03-29T08:31:34.369Z,15.10
2019-03-29T08:34:04.092Z,16.70
2019-03-29T08:36:34.537Z,17.37
2019-03-29T08:39:05.461Z,17.70
2019-03-29T08:41:35.003Z,17.63
2019-03-29T08:44:04.464Z,18.90
2019-03-29T08:46:33.848Z,16.60
2019-03-29T08:49:03.279Z,17.47
2019-03-29T08:51:32.645Z,17.87
2019-03-29T08:54:02.518Z,17.40
2019-03-29T08:56:31.885Z,17.27
2019-03-29T08:59:02.143Z,16.73
2019-03-29T09:01:32.309Z,16.70
2019-03-29T09:04:05.713Z,17.30
2019-03-29T09:06:35.069Z,16.70
2019-03-29T09:09:07.076Z,15.73
2019-03-29T09:11:38.959Z,17.27
2019-03-29T09:14:09.155Z,17.17
2019-03-29T09:16:39.643Z,16.97
2019-03-29T09:19:10.312Z,16.30
2019-03-29T09:21:40.479Z,17.17
2019-03-29T09:24:21.100Z,17.37
2019-03-29T09:26:42.536Z,16.63
2019-03-29T09:29:12.818Z,16.53
2019-03-29T09:31:43.010Z,17.10
2019-03-29T09:34:13.948Z,19.00
2019-03-29T09:36:44.433Z,17.70
2019-03-29T09:39:14.622Z,19.23
2019-03-29T09:41:45.201Z,17.43
2019-03-29T09:44:15.700Z,18.20
2019-03-29T09:46:46.215Z,19.53
2019-03-29T09:49:16.405Z,19.67
2019-03-29T09:51:46.597Z,21.83
2019-03-29T09:54:20.124Z,19.57
2019-03-29T09:56:48.647Z,19.60
2019-03-29T09:59:18.798Z,19.73
2019-03-29T10:01:49.017Z,20.50
2019-03-29T10:04:19.192Z,21.27
2019-03-29T10:06:49.466Z,21.43
2019-03-29T10:09:20.032Z,20.27
2019-03-29T10:11:50.216Z,21.57
2019-03-29T10:14:20.395Z,21.10
2019-03-29T10:16:50.603Z,20.93
2019-03-29T10:19:20.850Z,22.63
2019-03-29T10:21:51.050Z,22.43
2019-03-29T10:24:21.232Z,23.70
2019-03-29T10:26:51.405Z,141.17
2019-03-29T10:29:21.621Z,33.53
2019-03-29T10:31:51.802Z,24.50
2019-03-29T10:34:22.152Z,24.30
2019-03-29T10:36:52.673Z,23.93
2019-03-29T10:39:26.154Z,23.90
2019-03-29T10:41:54.799Z,24.60
2019-03-29T10:44:24.996Z,22.20
2019-03-29T10:46:55.188Z,23.63
2019-03-29T10:49:25.376Z,23.23
2019-03-29T10:51:55.624Z,25.33
2019-03-29T10:54:25.816Z,42.00
2019-03-29T10:56:55.989Z,28.10
2019-03-29T10:59:27.816Z,24.73
2019-03-29T11:01:58.317Z,25.10
2019-03-29T11:04:31.690Z,25.30
2019-03-29T11:07:00.455Z,25.07
2019-03-29T11:09:30.606Z,23.53
2019-03-29T11:12:00.864Z,25.07
2019-03-29T11:14:31.156Z,26.23
2019-03-29T11:17:01.442Z,24.07
2019-03-29T11:19:31.888Z,25.23
2019-03-29T11:22:02.336Z,26.77
2019-03-29T11:24:32.508Z,26.87
2019-03-29T11:27:02.700Z,26.30
2019-03-29T11:29:33.180Z,24.70
2019-03-29T11:32:03.572Z,26.23
2019-03-29T11:34:33.116Z,26.20
2019-03-29T11:37:03.231Z,25.90
2019-03-29T11:39:33.400Z,25.47
2019-03-29T11:42:03.903Z,26.23
2019-03-29T11:44:34.196Z,25.80
2019-03-29T11:47:04.788Z,26.57
2019-03-29T11:49:34.993Z,26.40
2019-03-29T11:52:05.369Z,27.00
2019-03-29T11:54:35.641Z,27.50
2019-03-29T11:57:05.876Z,30.37
2019-03-29T11:59:39.906Z,31.10
2019-03-29T12:02:08.651Z,28.60
2019-03-29T12:04:38.945Z,28.17
2019-03-29T12:07:09.130Z,28.30
2019-03-29T12:09:39.328Z,27.43
2019-03-29T12:12:10.649Z,26.83
2019-03-29T12:14:40.897Z,27.03
2019-03-29T12:17:11.267Z,27.17
2019-03-29T12:19:41.482Z,27.40
2019-03-29T12:22:11.739Z,27.97
2019-03-29T12:24:41.921Z,29.33
2019-03-29T12:27:12.108Z,27.90
2019-03-29T12:29:42.287Z,27.70
2019-03-29T12:32:12.476Z,25.30
2019-03-29T12:34:42.681Z,26.03
2019-03-29T12:37:13.402Z,27.03
2019-03-29T12:39:43.568Z,26.50
2019-03-29T12:42:15.381Z,26.90
2019-03-29T12:44:44.864Z,27.90
2019-03-29T12:47:14.954Z,29.13
2019-03-29T12:49:45.144Z,27.80
2019-03-29T12:52:15.408Z,29.43
2019-03-29T12:54:45.671Z,29.37
2019-03-29T12:57:15.972Z,31.43
2019-03-29T12:59:46.197Z,30.50
2019-03-29T13:02:18.144Z,29.90
2019-03-29T13:04:49.654Z,29.23
2019-03-29T13:07:19.808Z,31.80
2019-03-29T13:09:50.089Z,29.80
2019-03-29T13:12:21.316Z,29.77
2019-03-29T13:14:51.573Z,54.53
2019-03-29T13:17:22.041Z,29.10
2019-03-29T13:19:52.218Z,29.60
2019-03-29T13:22:22.432Z,31.30
2019-03-29T13:24:52.616Z,32.30
2019-03-29T13:27:22.798Z,30.83
2019-03-29T13:29:52.985Z,30.20
2019-03-29T13:32:23.145Z,31.03
2019-03-29T13:34:53.369Z,30.50
2019-03-29T13:37:23.552Z,30.67
2019-03-29T13:39:53.748Z,30.60
2019-03-29T13:42:23.929Z,31.13
2019-03-29T13:44:54.128Z,31.13
2019-03-29T13:47:24.365Z,30.80
2019-03-29T13:49:54.611Z,29.20
2019-03-29T13:52:24.816Z,29.83
2019-03-29T13:54:54.317Z,29.33
2019-03-29T13:57:23.720Z,28.93
2019-03-29T13:59:53.148Z,29.50
2019-03-29T14:02:22.599Z,30.20
2019-03-29T14:04:52.029Z,28.90
2019-03-29T14:07:21.472Z,29.57
2019-03-29T14:09:50.915Z,28.90
2019-03-29T14:12:20.472Z,30.60
2019-03-29T14:14:49.925Z,28.80
2019-03-29T14:17:19.391Z,30.43
2019-03-29T14:19:48.856Z,30.40
2019-03-29T14:22:18.309Z,31.60
2019-03-29T14:24:47.750Z,28.57
2019-03-29T14:27:17.241Z,29.57
2019-03-29T14:29:46.831Z,29.13
2019-03-29T14:32:16.340Z,28.27
2019-03-29T14:34:45.795Z,29.43
2019-03-29T14:37:15.530Z,26.07
2019-03-29T14:39:45.026Z,27.13
2019-03-29T14:42:14.463Z,27.10
2019-03-29T14:44:52.153Z,27.33
2019-03-29T14:47:15.077Z,27.70
2019-03-29T14:49:44.574Z,26.90
2019-03-29T14:52:13.987Z,28.47
2019-03-29T14:54:43.424Z,28.40
2019-03-29T14:57:12.848Z,26.80
2019-03-29T14:59:42.283Z,24.57
2019-03-29T15:02:11.733Z,25.50
2019-03-29T15:04:41.186Z,24.87
2019-03-29T15:07:10.813Z,27.80
2019-03-29T15:09:40.233Z,26.93
2019-03-29T15:12:09.726Z,24.63
2019-03-29T15:14:39.278Z,25.70
2019-03-29T15:17:08.692Z,26.30
2019-03-29T15:19:38.141Z,26.90
2019-03-29T15:22:07.594Z,23.90
2019-03-29T15:24:37.041Z,25.30
2019-03-29T15:27:06.500Z,25.20
2019-03-29T15:29:35.978Z,25.60
2019-03-29T15:32:05.545Z,24.87
2019-03-29T15:34:34.983Z,24.30
2019-03-29T15:37:04.412Z,25.10
2019-03-29T15:39:33.865Z,24.57
2019-03-29T15:42:03.588Z,26.43
2019-03-29T15:44:34.116Z,23.57
2019-03-29T15:47:03.556Z,25.07
2019-03-29T15:49:33.025Z,25.80
2019-03-29T15:52:02.450Z,25.70
2019-03-29T15:54:31.882Z,24.00
2019-03-29T15:57:01.336Z,26.77
2019-03-29T15:59:30.787Z,28.20
2019-03-29T16:02:00.220Z,27.87
2019-03-29T16:04:29.653Z,27.80
2019-03-29T16:06:59.113Z,26.20
2019-03-29T16:09:28.540Z,27.23
2019-03-29T16:11:58.023Z,25.57
2019-03-29T16:14:27.458Z,27.80
2019-03-29T16:16:56.926Z,27.23
2019-03-29T16:19:26.372Z,27.27
2019-03-29T16:21:55.825Z,26.83
2019-03-29T16:24:25.292Z,27.30
2019-03-29T16:26:54.829Z,27.17
2019-03-29T16:29:24.289Z,28.00
2019-03-29T16:31:54.114Z,29.43
2019-03-29T16:34:23.927Z,27.27
2019-03-29T16:36:53.477Z,26.03
2019-03-29T16:39:23.294Z,29.70
2019-03-29T16:41:52.982Z,28.47
2019-03-29T16:44:22.476Z,27.90
2019-03-29T16:46:51.948Z,25.37
2019-03-29T16:49:22.343Z,27.23
2019-03-29T16:51:51.872Z,28.87
2019-03-29T16:54:21.677Z,27.50
2019-03-29T16:56:51.140Z,28.10
2019-03-29T16:59:20.596Z,25.70
2019-03-29T17:01:51.591Z,27.27
2019-03-29T17:04:21.080Z,28.03
2019-03-29T17:06:50.532Z,28.47
2019-03-29T17:09:19.983Z,28.47
2019-03-29T17:11:49.532Z,27.23
2019-03-29T17:14:18.960Z,28.70
2019-03-29T17:16:48.400Z,27.73
2019-03-29T17:19:18.167Z,26.40
2019-03-29T17:21:47.632Z,26.70
2019-03-29T17:24:17.069Z,27.33
2019-03-29T17:26:46.880Z,26.80
2019-03-29T17:29:16.344Z,25.80
2019-03-29T17:31:46.108Z,29.10
2019-03-29T17:34:15.576Z,26.67
2019-03-29T17:36:45.033Z,25.57
2019-03-29T17:39:14.455Z,27.60
2019-03-29T17:41:43.889Z,27.00
2019-03-29T17:44:13.323Z,29.07
2019-03-29T17:46:42.794Z,25.87
2019-03-29T17:49:12.352Z,27.83
2019-03-29T17:51:44.906Z,27.60
2019-03-29T17:54:14.617Z,37.70
2019-03-29T17:56:44.072Z,28.73
2019-03-29T17:59:14.478Z,28.17
2019-03-29T18:01:43.956Z,28.07
2019-03-29T18:04:13.398Z,29.30
2019-03-29T18:06:43.181Z,26.53
2019-03-29T18:09:12.612Z,28.53
2019-03-29T18:11:42.065Z,28.97
2019-03-29T18:14:12.560Z,21.67
2019-03-29T18:16:42.117Z,27.87
2019-03-29T18:19:11.544Z,28.07
2019-03-29T18:21:41.044Z,28.37
2019-03-29T18:24:10.461Z,28.00
2019-03-29T18:26:39.899Z,28.13
2019-03-29T18:29:09.340Z,28.00
2019-03-29T18:31:40.244Z,28.60
2019-03-29T18:34:09.725Z,27.77
2019-03-29T18:36:39.704Z,28.90
2019-03-29T18:39:09.348Z,27.90
2019-03-29T18:41:40.342Z,28.60
2019-03-29T18:44:09.876Z,28.83
2019-03-29T18:46:44.722Z,28.03
2019-03-29T18:49:10.964Z,30.10
2019-03-29T18:51:40.611Z,29.90
2019-03-29T18:54:10.066Z,30.33
2019-03-29T18:56:40.141Z,31.30
2019-03-29T18:59:09.653Z,28.20
2019-03-29T19:01:39.289Z,27.87
2019-03-29T19:04:08.724Z,28.60
2019-03-29T19:06:39.921Z,29.10
2019-03-29T19:09:09.524Z,28.73
2019-03-29T19:11:39.219Z,30.23
2019-03-29T19:14:08.608Z,28.40
2019-03-29T19:16:38.002Z,29.17
2019-03-29T19:19:10.644Z,28.83
2019-03-29T19:21:44.240Z,30.20
2019-03-29T19:24:14.727Z,28.93
2019-03-29T19:26:45.185Z,28.77
2019-03-29T19:29:15.455Z,30.00
2019-03-29T19:31:46.166Z,29.70
2019-03-29T19:34:16.512Z,29.80
2019-03-29T19:36:46.721Z,31.10
2019-03-29T19:39:16.956Z,30.40
2019-03-29T19:41:47.396Z,30.33
2019-03-29T19:44:17.606Z,32.40
2019-03-29T19:46:48.760Z,30.47
2019-03-29T19:49:19.024Z,31.87
2019-03-29T19:51:49.200Z,29.40
2019-03-29T19:54:19.487Z,33.07
2019-03-29T19:56:50.190Z,30.87
2019-03-29T19:59:20.408Z,30.60
2019-03-29T20:01:50.624Z,32.00
2019-03-29T20:04:20.815Z,30.87
2019-03-29T20:06:50.975Z,32.47
2019-03-29T20:09:21.562Z,30.13
2019-03-29T20:11:51.848Z,33.50
2019-03-29T20:14:22.249Z,32.90
2019-03-29T20:16:55.097Z,32.60
2019-03-29T20:19:24.624Z,32.53
2019-03-29T20:21:54.901Z,31.50
2019-03-29T20:24:25.113Z,32.37
2019-03-29T20:26:55.716Z,32.10
2019-03-29T20:29:26.272Z,32.43
2019-03-29T20:31:56.466Z,33.43
2019-03-29T20:34:26.639Z,33.83
2019-03-29T20:36:56.841Z,34.80
2019-03-29T20:39:27.093Z,34.87
2019-03-29T20:41:57.286Z,38.03
2019-03-29T20:44:27.484Z,35.93
2019-03-29T20:46:57.654Z,37.50
2019-03-29T20:49:27.839Z,35.90
2019-03-29T20:51:57.997Z,36.47
2019-03-29T20:54:28.210Z,37.50
2019-03-29T20:56:58.356Z,46.23
2019-03-29T20:59:28.883Z,43.87
2019-03-29T21:01:59.127Z,47.93
2019-03-29T21:04:29.462Z,45.20
2019-03-29T21:06:59.675Z,42.07
2019-03-29T21:09:30.247Z,38.67
2019-03-29T21:12:00.804Z,39.10
2019-03-29T21:14:30.997Z,37.57
2019-03-29T21:17:01.277Z,38.10
2019-03-29T21:19:31.502Z,38.10
2019-03-29T21:22:01.739Z,38.57
2019-03-29T21:24:31.990Z,39.00
2019-03-29T21:27:02.158Z,37.57
2019-03-29T21:29:32.368Z,38.97
2019-03-29T21:32:02.533Z,37.03
2019-03-29T21:34:32.720Z,38.77
2019-03-29T21:37:02.901Z,39.23
2019-03-29T21:39:33.080Z,40.37
2019-03-29T21:42:03.502Z,38.20
2019-03-29T21:44:33.711Z,38.10
2019-03-29T21:47:03.924Z,37.80
2019-03-29T21:49:34.119Z,40.37
2019-03-29T21:52:04.629Z,39.10
2019-03-29T21:54:34.834Z,38.97
2019-03-29T21:57:05.036Z,39.10
2019-03-29T21:59:35.235Z,38.97
2019-03-29T22:02:05.440Z,40.30
2019-03-29T22:04:35.628Z,40.30
2019-03-29T22:07:05.797Z,38.93
2019-03-29T22:09:37.151Z,40.47
2019-03-29T22:12:07.796Z,39.27
2019-03-29T22:14:38.001Z,38.57
2019-03-29T22:17:08.203Z,41.13
2019-03-29T22:19:38.398Z,39.97
2019-03-29T22:22:08.602Z,40.27
2019-03-29T22:24:38.762Z,38.90
2019-03-29T22:27:08.948Z,41.03
2019-03-29T22:29:39.171Z,42.07
2019-03-29T22:32:09.464Z,40.37
2019-03-29T22:34:39.656Z,40.23
2019-03-29T22:37:10.783Z,40.30
2019-03-29T22:39:42.029Z,40.50
2019-03-29T22:42:12.200Z,39.27
2019-03-29T22:44:42.398Z,40.10
2019-03-29T22:47:12.625Z,40.43
2019-03-29T22:49:42.811Z,39.83
2019-03-29T22:52:13.030Z,39.87
2019-03-29T22:54:43.295Z,40.47
2019-03-29T22:57:13.521Z,41.50
2019-03-29T22:59:43.702Z,40.27
2019-03-29T23:02:14.640Z,38.47
2019-03-29T23:04:44.821Z,40.63
2019-03-29T23:07:15.028Z,41.17
2019-03-29T23:09:45.335Z,39.33
2019-03-29T23:12:15.690Z,40.17
2019-03-29T23:14:45.989Z,40.13
2019-03-29T23:17:16.313Z,40.47
2019-03-29T23:19:46.528Z,39.67
2019-03-29T23:22:16.696Z,39.03
2019-03-29T23:24:47.189Z,41.67
2019-03-29T23:27:17.594Z,41.70
2019-03-29T23:29:47.762Z,40.77
2019-03-29T23:32:18.013Z,39.30
2019-03-29T23:34:48.188Z,41.83
2019-03-29T23:37:18.371Z,44.10
2019-03-29T23:39:48.520Z,41.73
2019-03-29T23:42:18.729Z,42.20
2019-03-29T23:44:48.924Z,41.23
2019-03-29T23:47:19.480Z,41.80
2019-03-29T23:49:49.716Z,40.63
2019-03-29T23:52:19.913Z,42.73
2019-03-29T23:54:50.064Z,42.50
2019-03-29T23:57:20.269Z,42.10
2019-03-29T23:59:50.455Z,41.10
